createdAt,value
2022-08-08T00:00:52.902Z,15.17
2022-08-08T00:10:35.277Z,15.00
2022-08-08T00:20:36.903Z,15.17
2022-08-08T00:30:34.646Z,15.52
2022-08-08T00:41:11.039Z,15.35
2022-08-08T00:50:36.180Z,15.17
2022-08-08T01:00:37.935Z,15.17
2022-08-08T01:10:35.521Z,15.17
2022-08-08T01:20:35.633Z,15.17
2022-08-08T01:30:35.944Z,15.17
2022-08-08T01:40:36.097Z,15.17
2022-08-08T01:50:36.600Z,14.19
2022-08-08T02:00:36.517Z,14.53
2022-08-08T02:10:37.071Z,14.53
2022-08-08T02:21:01.104Z,14.53
2022-08-08T02:30:37.782Z,14.70
2022-08-08T02:40:38.168Z,14.53
2022-08-08T02:50:37.352Z,14.70
2022-08-08T03:00:37.464Z,14.70
2022-08-08T03:10:44.318Z,14.70
2022-08-08T03:20:38.658Z,14.70
2022-08-08T03:30:37.839Z,14.70
2022-08-08T03:40:38.325Z,14.70
2022-08-08T03:50:38.652Z,14.70
2022-08-08T04:00:56.463Z,14.87
2022-08-08T04:10:39.329Z,14.87
2022-08-08T04:20:38.617Z,14.70
2022-08-08T04:30:44.460Z,14.87
2022-08-08T04:40:39.885Z,14.87
2022-08-08T04:50:46.061Z,14.87
2022-08-08T05:00:40.150Z,14.87
2022-08-08T05:10:39.286Z,14.87
2022-08-08T05:20:48.339Z,14.87
2022-08-08T05:30:40.475Z,14.87
2022-08-08T05:40:40.750Z,15.86
2022-08-08T05:50:44.576Z,15.69
2022-08-08T06:00:40.133Z,15.86
2022-08-08T06:10:40.844Z,15.86
2022-08-08T06:20:40.511Z,15.69
2022-08-08T06:30:40.553Z,15.52
2022-08-08T06:40:40.755Z,16.33
2022-08-08T06:50:41.826Z,16.16
2022-08-08T07:00:41.292Z,16.79
2022-08-08T07:10:45.992Z,16.42
2022-08-08T07:20:50.577Z,16.23
2022-08-08T07:30:42.370Z,16.23
2022-08-08T07:40:41.639Z,17.02
2022-08-08T07:50:41.588Z,16.83
2022-08-08T08:00:41.819Z,16.64
2022-08-08T08:10:41.790Z,17.42
2022-08-08T08:20:42.109Z,16.61
2022-08-08T08:30:55.377Z,17.57
2022-08-08T08:40:42.554Z,16.93
2022-08-08T08:50:43.615Z,17.68
2022-08-08T09:01:03.150Z,17.23
2022-08-08T09:10:44.005Z,17.73
2022-08-08T09:22:02.957Z,17.49
2022-08-08T09:30:44.823Z,17.01
2022-08-08T09:40:46.559Z,17.01
2022-08-08T09:50:50.126Z,18.44
2022-08-08T10:00:53.376Z,17.71
2022-08-08T10:10:50.910Z,17.96
2022-08-08T10:20:51.128Z,17.89
2022-08-08T10:31:00.556Z,17.89
2022-08-08T10:40:45.171Z,17.89
2022-08-08T10:50:44.514Z,18.03
2022-08-08T11:00:52.548Z,16.90
2022-08-08T11:10:45.755Z,16.90
2022-08-08T11:20:52.413Z,17.82
2022-08-08T11:30:50.587Z,16.90
2022-08-08T11:40:49.818Z,16.29
2022-08-08T11:50:47.795Z,16.61
2022-08-08T12:00:47.071Z,16.92
2022-08-08T12:10:47.615Z,17.84
2022-08-08T12:20:45.957Z,17.20
2022-08-08T12:30:47.761Z,16.88
2022-08-08T12:40:56.796Z,17.84
2022-08-08T12:50:47.381Z,16.55
2022-08-08T13:00:46.590Z,16.21
2022-08-08T13:10:56.383Z,16.21
2022-08-08T13:20:48.355Z,16.21
2022-08-08T13:30:47.209Z,16.21
2022-08-08T13:40:47.341Z,15.51
2022-08-08T13:50:50.877Z,16.55
2022-08-08T14:00:48.685Z,16.42
2022-08-08T14:10:48.014Z,15.51
2022-08-08T14:20:56.609Z,16.21
2022-08-08T14:30:50.153Z,17.12
2022-08-08T14:40:48.638Z,16.42
2022-08-08T14:50:48.686Z,15.51
2022-08-08T15:00:49.127Z,14.79
2022-08-08T15:10:49.074Z,15.51
2022-08-08T15:20:49.436Z,15.15
2022-08-08T15:30:50.885Z,15.51
2022-08-08T15:40:49.789Z,15.86
2022-08-08T15:50:50.038Z,15.51
2022-08-08T16:00:50.854Z,16.21
2022-08-08T16:13:27.361Z,15.51
2022-08-08T16:20:51.643Z,15.86
2022-08-08T16:30:50.977Z,14.96
2022-08-08T16:40:51.067Z,15.64
2022-08-08T16:50:51.223Z,15.05
2022-08-08T17:00:51.492Z,14.46
2022-08-08T17:10:57.590Z,14.77
2022-08-08T17:20:52.738Z,15.08
2022-08-08T17:30:52.033Z,14.46
2022-08-08T17:40:52.092Z,14.75
2022-08-08T17:50:54.559Z,15.33
2022-08-08T18:00:56.051Z,15.33
2022-08-08T18:10:53.673Z,14.68
2022-08-08T18:20:59.223Z,14.68
2022-08-08T18:30:54.076Z,14.95
2022-08-08T18:40:54.154Z,14.95
2022-08-08T18:50:58.683Z,14.02
2022-08-08T19:00:54.734Z,14.29
2022-08-08T19:10:54.465Z,14.55
2022-08-08T19:20:54.151Z,14.55
2022-08-08T19:31:04.004Z,14.55
2022-08-08T19:40:56.348Z,14.38
2022-08-08T19:50:54.901Z,14.38
2022-08-08T20:00:56.790Z,14.38
2022-08-08T20:10:55.153Z,13.68
2022-08-08T20:20:55.201Z,14.17
2022-08-08T20:30:56.446Z,14.17
2022-08-08T20:40:55.530Z,13.93
2022-08-08T20:50:55.838Z,14.17
2022-08-08T21:00:55.854Z,13.68
2022-08-08T21:10:56.180Z,14.14
2022-08-08T21:20:56.196Z,14.36
2022-08-08T21:30:56.547Z,14.36
2022-08-08T21:40:57.189Z,14.58
2022-08-08T21:50:58.169Z,14.14
2022-08-08T22:00:57.094Z,13.45
2022-08-08T22:10:57.438Z,14.17
2022-08-08T22:20:57.503Z,13.68
2022-08-08T22:30:57.674Z,14.36
2022-08-08T22:40:57.787Z,14.05
2022-08-08T22:50:58.126Z,14.05
2022-08-08T23:01:00.198Z,14.26
2022-08-08T23:11:06.241Z,14.05
2022-08-08T23:20:59.459Z,13.50
2022-08-08T23:30:58.717Z,13.91
2022-08-08T23:40:58.848Z,13.70
2022-08-08T23:50:59.188Z,13.70
